Time;durP1;ratioP1;P1;durP2;ratioP2;P2;SDS_P1;SDS_P2;PMS_P1;PMS_P2;Temp;Humidity;BMP_temperature;BMP_pressure;BME280_temperature;BME280_humidity;BME280_pressure;Samples;Min_cycle;Max_cycle;Signal;HPM_P1;HPM_P2
2022/05/02 00:00:00;;;;;;;14.98;13.88;;;11.30;99.90;;;;;;5986717;23;20714;-77
2022/05/02 00:02:28;;;;;;;15.00;13.90;;;11.30;99.90;;;;;;5980026;23;20219;-78
2022/05/02 00:04:55;;;;;;;14.88;13.65;;;11.30;99.90;;;;;;5991153;23;20248;-76
2022/05/02 00:07:22;;;;;;;14.20;13.10;;;11.30;99.90;;;;;;6005156;23;20207;-76
2022/05/02 00:09:49;;;;;;;16.92;15.50;;;11.30;99.90;;;;;;5998174;23;20664;-76
2022/05/02 00:12:16;;;;;;;16.65;15.13;;;11.30;99.90;;;;;;5979518;23;20215;-77
2022/05/02 00:14:42;;;;;;;14.93;13.82;;;11.30;99.90;;;;;;6021732;23;20236;-83
2022/05/02 00:17:09;;;;;;;15.50;14.27;;;11.30;99.90;;;;;;6022453;23;20195;-83
2022/05/02 00:19:38;;;;;;;15.90;14.50;;;11.20;99.90;;;;;;6031792;23;20232;-83
2022/05/02 00:22:05;;;;;;;15.50;14.30;;;11.20;99.90;;;;;;6019354;23;20550;-83
2022/05/02 00:24:32;;;;;;;16.80;15.48;;;11.20;99.90;;;;;;5990327;23;20285;-83
2022/05/02 00:26:59;;;;;;;15.35;14.20;;;11.10;99.90;;;;;;5997039;23;20194;-83
2022/05/02 00:29:26;;;;;;;16.52;15.20;;;11.20;99.90;;;;;;6001485;23;20337;-84
2022/05/02 00:31:54;;;;;;;16.05;14.85;;;11.10;99.90;;;;;;6002929;23;20228;-83
2022/05/02 00:34:20;;;;;;;16.92;15.63;;;11.10;99.90;;;;;;6003208;23;20198;-84
2022/05/02 00:36:49;;;;;;;17.30;15.90;;;11.10;99.90;;;;;;6004526;23;20221;-84
2022/05/02 00:39:16;;;;;;;18.65;17.08;;;11.10;99.90;;;;;;6003323;23;20669;-83
2022/05/02 00:41:43;;;;;;;17.40;15.80;;;11.10;99.90;;;;;;6007717;23;20597;-83
2022/05/02 00:44:10;;;;;;;17.00;15.60;;;11.10;99.90;;;;;;6012432;23;20245;-83
2022/05/02 00:46:38;;;;;;;16.42;15.23;;;11.10;99.90;;;;;;6004970;23;20193;-83
2022/05/02 00:49:05;;;;;;;17.40;15.80;;;11.20;99.90;;;;;;6004041;23;20190;-83
2022/05/02 00:51:32;;;;;;;16.02;14.80;;;11.20;99.90;;;;;;6004255;23;20281;-83
2022/05/02 00:54:01;;;;;;;17.63;16.17;;;11.20;99.90;;;;;;5998144;23;20198;-83
2022/05/02 00:56:27;;;;;;;18.17;16.77;;;11.20;99.90;;;;;;6003442;23;20204;-84
2022/05/02 00:58:55;;;;;;;16.40;15.10;;;11.30;99.90;;;;;;6002722;23;20190;-83
2022/05/02 01:01:22;;;;;;;17.52;16.08;;;11.30;99.90;;;;;;6003269;23;20310;-83
2022/05/02 01:03:50;;;;;;;16.45;15.18;;;11.30;99.90;;;;;;5997611;23;20276;-84
2022/05/02 01:09:04;;;;;;;17.13;15.63;;;11.30;99.90;;;;;;6003157;23;20193;-84
2022/05/02 01:11:31;;;;;;;18.33;16.63;;;11.30;99.90;;;;;;5999523;23;20214;-84
2022/05/02 01:13:58;;;;;;;17.65;16.25;;;11.30;99.90;;;;;;5998793;23;20292;-83
2022/05/02 01:16:26;;;;;;;18.00;16.67;;;11.30;99.90;;;;;;5997405;23;20535;-83
2022/05/02 01:18:55;;;;;;;17.75;16.35;;;11.20;99.90;;;;;;6002675;23;20280;-84
2022/05/02 01:21:26;;;;;;;16.30;15.00;;;11.20;99.90;;;;;;6003243;23;20218;-84
2022/05/02 01:23:54;;;;;;;17.38;15.98;;;11.20;99.90;;;;;;6001282;23;20194;-83
2022/05/02 01:26:22;;;;;;;17.42;16.02;;;11.10;99.90;;;;;;5997062;23;20273;-83
2022/05/02 01:28:50;;;;;;;17.73;16.33;;;11.10;99.90;;;;;;6005547;23;20236;-83
2022/05/02 01:31:18;;;;;;;18.67;17.10;;;11.10;99.90;;;;;;6003230;23;20773;-83
2022/05/02 01:33:45;;;;;;;17.70;16.10;;;11.00;99.90;;;;;;6004649;23;20213;-83
2022/05/02 01:36:13;;;;;;;18.30;16.80;;;11.00;99.90;;;;;;6003845;23;20269;-84
2022/05/02 01:38:42;;;;;;;18.08;16.58;;;11.00;99.90;;;;;;6001574;23;20205;-84
2022/05/02 01:41:10;;;;;;;18.35;16.77;;;11.00;99.90;;;;;;6005218;23;20679;-83
2022/05/02 01:43:38;;;;;;;19.35;17.63;;;10.90;99.90;;;;;;6004499;23;20186;-82
2022/05/02 01:46:07;;;;;;;19.05;17.55;;;10.90;99.90;;;;;;6004804;23;20239;-83
2022/05/02 01:48:34;;;;;;;17.90;16.45;;;10.90;99.90;;;;;;6002876;23;20228;-83
2022/05/02 01:51:01;;;;;;;20.25;18.55;;;10.90;99.90;;;;;;6004513;23;20256;-82
2022/05/02 01:53:28;;;;;;;20.42;18.63;;;10.80;99.90;;;;;;6006053;23;20185;-82
2022/05/02 01:55:57;;;;;;;20.52;18.83;;;10.80;99.90;;;;;;6003183;23;20299;-83
2022/05/02 01:58:24;;;;;;;21.05;19.23;;;10.70;99.90;;;;;;6001365;23;20196;-82
2022/05/02 02:00:51;;;;;;;21.17;19.33;;;10.70;99.90;;;;;;6004403;23;20275;-82
2022/05/02 02:03:18;;;;;;;21.13;19.13;;;10.70;99.90;;;;;;6003527;23;20296;-82
2022/05/02 02:05:51;;;;;;;21.08;19.27;;;10.60;99.90;;;;;;6004418;23;20311;-82
2022/05/02 02:08:19;;;;;;;20.65;18.95;;;10.60;99.90;;;;;;6004632;23;20307;-82
2022/05/02 02:10:47;;;;;;;22.60;20.70;;;10.60;99.90;;;;;;6003657;23;20285;-82
2022/05/02 02:13:18;;;;;;;23.17;21.08;;;10.50;99.90;;;;;;6017240;23;20277;-82
2022/05/02 02:15:46;;;;;;;22.58;20.63;;;10.50;99.90;;;;;;6007483;23;20208;-82
2022/05/02 02:18:13;;;;;;;21.42;19.63;;;10.50;99.90;;;;;;6002457;23;20196;-82
2022/05/02 02:20:43;;;;;;;21.80;19.98;;;10.40;99.90;;;;;;6003983;23;20283;-82
2022/05/02 02:23:11;;;;;;;19.88;18.17;;;10.50;99.90;;;;;;6005008;23;20212;-82
2022/05/02 02:25:38;;;;;;;22.50;20.50;;;10.50;99.90;;;;;;5999768;23;20850;-82
2022/05/02 02:28:05;;;;;;;21.38;19.55;;;10.50;99.90;;;;;;5996511;23;20720;-82
2022/05/02 02:30:34;;;;;;;22.80;20.80;;;10.50;99.90;;;;;;6003414;23;20199;-82
2022/05/02 02:33:02;;;;;;;21.60;19.85;;;10.50;99.90;;;;;;6004413;23;20217;-82
2022/05/02 02:35:30;;;;;;;21.50;19.70;;;10.60;99.90;;;;;;6003447;23;20197;-83
2022/05/02 02:37:57;;;;;;;22.58;20.58;;;10.60;99.90;;;;;;6002656;23;20193;-82
2022/05/02 02:40:24;;;;;;;23.67;21.63;;;10.60;99.90;;;;;;6002811;23;20193;-83
2022/05/02 02:42:51;;;;;;;22.00;20.00;;;10.70;99.90;;;;;;6003951;23;20218;-82
2022/05/02 02:45:18;;;;;;;22.33;20.55;;;10.70;99.90;;;;;;6002904;23;20320;-82
2022/05/02 02:47:46;;;;;;;23.08;21.02;;;10.70;99.90;;;;;;5997603;23;20221;-82
2022/05/02 02:50:13;;;;;;;21.67;19.88;;;10.70;99.90;;;;;;6003841;23;20654;-82
2022/05/02 02:52:40;;;;;;;20.05;18.45;;;10.70;99.90;;;;;;6004138;23;20210;-82
2022/05/02 02:55:08;;;;;;;21.65;19.85;;;10.70;99.90;;;;;;6004287;23;20268;-82
2022/05/02 02:57:35;;;;;;;22.42;20.45;;;10.80;99.90;;;;;;6001209;23;20240;-82
2022/05/02 03:00:03;;;;;;;20.38;18.73;;;10.80;99.90;;;;;;6004908;23;20196;-82
2022/05/02 03:02:30;;;;;;;19.90;18.20;;;10.80;99.90;;;;;;6004577;23;20220;-82
2022/05/02 03:07:43;;;;;;;22.20;20.30;;;10.90;99.90;;;;;;6001199;23;20277;-83
2022/05/02 03:10:10;;;;;;;22.05;20.25;;;10.90;99.90;;;;;;6005172;23;20196;-83
2022/05/02 03:12:37;;;;;;;21.58;19.67;;;10.90;99.90;;;;;;6004437;23;20272;-83
2022/05/02 03:15:05;;;;;;;20.98;19.25;;;10.90;99.90;;;;;;6003204;23;20202;-83
2022/05/02 03:17:32;;;;;;;21.27;19.45;;;11.00;99.90;;;;;;5993606;23;20600;-83
2022/05/02 03:20:00;;;;;;;21.38;19.48;;;10.90;99.90;;;;;;6003345;23;20283;-83
2022/05/02 03:22:27;;;;;;;19.55;17.95;;;10.90;99.90;;;;;;6004892;23;20251;-83
2022/05/02 03:24:54;;;;;;;22.90;20.90;;;10.90;99.90;;;;;;6003068;23;20264;-83
2022/05/02 03:27:21;;;;;;;21.45;19.75;;;10.90;99.90;;;;;;6003149;23;20192;-83
2022/05/02 03:29:48;;;;;;;23.00;20.80;;;10.90;99.90;;;;;;6004682;23;20272;-83
2022/05/02 03:32:15;;;;;;;23.40;21.30;;;11.00;99.90;;;;;;6004205;23;20234;-83
2022/05/02 03:34:41;;;;;;;21.85;20.05;;;11.00;99.90;;;;;;6003647;23;20240;-83
2022/05/02 03:37:10;;;;;;;22.90;21.10;;;11.00;99.90;;;;;;6005093;23;20753;-83
2022/05/02 03:39:36;;;;;;;24.27;22.27;;;11.10;99.90;;;;;;6000770;23;20524;-83
2022/05/02 03:42:04;;;;;;;23.63;21.63;;;11.00;99.90;;;;;;6005096;23;20292;-83
2022/05/02 03:44:31;;;;;;;23.40;21.42;;;11.10;99.90;;;;;;6012376;23;20622;-83
2022/05/02 03:46:58;;;;;;;23.95;21.92;;;11.10;99.90;;;;;;6003823;23;20190;-83
2022/05/02 03:49:25;;;;;;;25.77;23.52;;;11.10;99.90;;;;;;5999849;23;20280;-83
2022/05/02 03:51:52;;;;;;;25.08;22.98;;;11.10;99.90;;;;;;6002165;23;20856;-83
2022/05/02 03:54:20;;;;;;;26.00;23.60;;;11.00;99.90;;;;;;6004278;23;20228;-83
2022/05/02 03:56:47;;;;;;;25.35;23.25;;;11.10;99.90;;;;;;6002410;23;20238;-83
2022/05/02 03:59:14;;;;;;;24.95;22.85;;;11.10;99.90;;;;;;6004279;23;20242;-82
2022/05/02 04:01:42;;;;;;;26.00;23.80;;;11.10;99.90;;;;;;6002279;23;20630;-83
2022/05/02 04:04:08;;;;;;;26.50;24.27;;;11.10;99.90;;;;;;6002661;23;20194;-83
2022/05/02 04:06:36;;;;;;;26.92;24.58;;;11.10;99.90;;;;;;6003485;23;20304;-83
2022/05/02 04:09:03;;;;;;;24.52;22.52;;;11.20;99.90;;;;;;6003513;23;20194;-83
2022/05/02 04:11:31;;;;;;;23.27;21.40;;;11.20;99.90;;;;;;6005117;23;20236;-82
2022/05/02 04:13:58;;;;;;;24.85;22.67;;;11.20;99.90;;;;;;6003404;23;20209;-82
2022/05/02 04:16:25;;;;;;;25.33;23.13;;;11.20;99.90;;;;;;6006591;23;20216;-82
2022/05/02 04:18:53;;;;;;;24.52;22.45;;;11.20;99.90;;;;;;5998268;23;20661;-82
2022/05/02 04:21:20;;;;;;;21.90;20.10;;;11.20;99.90;;;;;;6003217;23;20261;-83
2022/05/02 04:23:47;;;;;;;23.63;21.63;;;11.20;99.90;;;;;;5997011;23;20300;-81
2022/05/02 04:26:14;;;;;;;22.98;20.98;;;11.10;99.90;;;;;;6000714;23;20213;-82
2022/05/02 04:28:42;;;;;;;23.02;21.08;;;11.10;99.90;;;;;;5999019;23;20660;-82
2022/05/02 04:31:09;;;;;;;23.65;21.35;;;11.20;99.90;;;;;;6001113;23;20621;-81
2022/05/02 04:33:36;;;;;;;22.90;20.80;;;11.10;99.90;;;;;;5998838;23;20219;-85
2022/05/02 04:36:04;;;;;;;22.92;20.92;;;11.20;99.90;;;;;;6002757;23;20285;-81
2022/05/02 04:38:31;;;;;;;21.67;19.88;;;11.10;99.90;;;;;;6001085;23;20649;-83
2022/05/02 04:40:58;;;;;;;23.17;21.17;;;11.20;99.90;;;;;;5973299;23;20194;-84
2022/05/02 04:43:25;;;;;;;21.85;20.05;;;11.10;99.90;;;;;;5992179;23;20233;-81
2022/05/02 04:45:54;;;;;;;20.77;19.13;;;11.10;99.90;;;;;;5996721;23;20208;-79
2022/05/02 04:48:21;;;;;;;19.10;17.45;;;11.10;99.90;;;;;;5997078;23;20272;-79
2022/05/02 04:50:48;;;;;;;20.25;18.65;;;11.00;99.90;;;;;;5990054;23;20641;-79
2022/05/02 04:53:15;;;;;;;21.17;19.48;;;11.10;99.90;;;;;;5996771;23;20195;-81
2022/05/02 04:55:42;;;;;;;22.45;20.65;;;11.10;99.90;;;;;;5989182;23;20602;-81
2022/05/02 04:58:09;;;;;;;24.15;22.30;;;11.20;99.90;;;;;;6001074;23;20216;-80
2022/05/02 05:00:36;;;;;;;25.02;23.00;;;11.30;99.90;;;;;;5997044;23;20182;-89
2022/05/02 05:03:05;;;;;;;22.42;20.42;;;11.40;99.90;;;;;;5995221;23;20186;-80
2022/05/02 05:05:33;;;;;;;21.48;19.77;;;11.40;99.90;;;;;;6000092;23;20289;-81
2022/05/02 05:08:00;;;;;;;22.65;20.65;;;11.50;99.90;;;;;;5998112;23;20208;-82
2022/05/02 05:10:27;;;;;;;22.70;20.40;;;11.50;99.90;;;;;;5996805;23;20183;-81
2022/05/02 05:13:06;;;;;;;22.15;20.27;;;11.50;99.90;;;;;;6005857;23;20554;-81
2022/05/02 05:16:21;;;;;;;22.27;20.27;;;11.50;99.90;;;;;;5997940;23;20194;-81
2022/05/02 05:19:11;;;;;;;21.15;19.40;;;11.50;99.90;;;;;;5995664;23;20186;-81
2022/05/02 05:21:45;;;;;;;23.25;21.08;;;11.50;99.90;;;;;;5988964;23;20225;-81
2022/05/02 05:24:51;;;;;;;20.35;18.67;;;11.50;99.90;;;;;;5994345;23;20260;-81
2022/05/02 05:27:32;;;;;;;22.27;20.35;;;11.40;99.90;;;;;;5986307;23;20295;-78
2022/05/02 05:30:04;;;;;;;21.73;19.77;;;11.40;99.90;;;;;;5997365;23;20206;-80
2022/05/02 05:32:41;;;;;;;23.17;21.27;;;11.40;99.90;;;;;;5998167;23;20211;-80
2022/05/02 05:35:11;;;;;;;21.85;19.95;;;11.40;99.90;;;;;;5999194;23;20185;-81
2022/05/02 05:38:01;;;;;;;23.33;21.42;;;11.40;99.90;;;;;;5999559;23;20190;-80
2022/05/02 05:40:36;;;;;;;25.40;23.30;;;11.40;99.90;;;;;;5995231;23;20187;-80
2022/05/02 05:43:18;;;;;;;23.27;21.35;;;11.40;99.90;;;;;;6003327;23;20698;-80
2022/05/02 05:45:56;;;;;;;23.83;21.85;;;11.30;99.90;;;;;;6000775;23;20209;-80
2022/05/02 05:48:36;;;;;;;24.38;22.35;;;11.40;99.90;;;;;;5995737;23;20194;-80
2022/05/02 05:51:20;;;;;;;23.88;21.88;;;11.40;99.90;;;;;;5999654;23;20285;-80
2022/05/02 05:53:58;;;;;;;25.20;22.95;;;11.40;99.90;;;;;;5998807;23;20266;-80
2022/05/02 05:56:39;;;;;;;23.58;21.48;;;11.40;99.90;;;;;;6001855;23;20507;-80
2022/05/02 05:59:08;;;;;;;23.75;21.65;;;11.50;99.90;;;;;;6001068;23;20653;-80
2022/05/02 06:01:57;;;;;;;24.30;22.40;;;11.60;99.90;;;;;;5996960;23;20327;-80
2022/05/02 06:04:26;;;;;;;25.10;22.90;;;11.60;99.90;;;;;;6003200;23;20193;-80
2022/05/02 06:06:55;;;;;;;23.77;21.88;;;11.70;99.90;;;;;;5992217;23;20214;-80
2022/05/02 06:09:24;;;;;;;21.98;20.17;;;11.90;99.90;;;;;;5997267;23;20309;-80
2022/05/02 06:11:55;;;;;;;22.75;20.92;;;12.10;99.90;;;;;;6000157;23;20693;-81
2022/05/02 06:14:26;;;;;;;23.10;21.10;;;12.30;99.90;;;;;;5998553;23;20190;-80
2022/05/02 06:19:44;;;;;;;23.05;21.25;;;12.70;99.90;;;;;;5996490;23;20261;-80
2022/05/02 06:22:13;;;;;;;23.65;21.75;;;12.80;99.90;;;;;;5996916;23;20294;-80
2022/05/02 06:24:46;;;;;;;23.27;21.38;;;12.80;99.90;;;;;;5993745;23;20554;-81
2022/05/02 06:27:14;;;;;;;23.20;21.35;;;12.80;99.90;;;;;;5999436;23;20891;-80
2022/05/02 06:29:42;;;;;;;23.38;21.38;;;12.90;99.90;;;;;;5997627;23;20179;-80
2022/05/02 06:32:12;;;;;;;24.13;22.02;;;13.00;99.90;;;;;;5997133;23;20666;-80
2022/05/02 06:34:41;;;;;;;21.88;20.08;;;13.10;99.90;;;;;;6002766;23;20190;-80
2022/05/02 06:37:27;;;;;;;20.70;19.10;;;13.20;99.90;;;;;;6000286;23;20186;-80
2022/05/02 06:40:11;;;;;;;22.50;20.67;;;13.50;99.90;;;;;;6000846;23;20187;-80
2022/05/02 06:42:40;;;;;;;20.40;18.70;;;13.70;99.90;;;;;;6007622;23;20224;-79
2022/05/02 06:45:23;;;;;;;21.85;19.90;;;13.90;99.90;;;;;;6002246;23;20225;-80
2022/05/02 06:48:17;;;;;;;20.23;18.63;;;14.00;99.90;;;;;;6002692;23;20194;-80
2022/05/02 06:50:47;;;;;;;20.87;19.27;;;14.30;99.90;;;;;;5997397;23;20445;-80
2022/05/02 06:53:33;;;;;;;20.17;18.57;;;14.60;99.90;;;;;;6001357;23;20445;-80
2022/05/02 06:56:08;;;;;;;19.60;18.00;;;14.80;99.90;;;;;;6016201;23;20572;-82
2022/05/02 06:58:44;;;;;;;18.90;17.40;;;15.00;99.90;;;;;;6020097;23;20930;-83
2022/05/02 07:01:19;;;;;;;18.87;17.37;;;15.10;99.90;;;;;;6009341;23;20459;-83
2022/05/02 07:04:13;;;;;;;18.67;16.87;;;15.40;99.90;;;;;;6002257;23;20445;-82
2022/05/02 07:06:53;;;;;;;18.97;17.27;;;15.80;99.90;;;;;;5992027;23;21071;-82
2022/05/02 07:09:28;;;;;;;19.47;17.73;;;16.30;99.90;;;;;;5990618;23;20450;-82
2022/05/02 07:12:07;;;;;;;19.60;17.87;;;16.70;99.90;;;;;;5998756;23;20471;-82
2022/05/02 07:14:44;;;;;;;20.47;18.87;;;16.90;99.90;;;;;;6003434;23;20448;-82
2022/05/02 07:17:23;;;;;;;18.70;17.40;;;17.00;99.90;;;;;;6003729;23;20453;-83
2022/05/02 07:19:59;;;;;;;20.33;18.53;;;17.20;99.90;;;;;;5990435;23;20447;-82
2022/05/02 07:22:34;;;;;;;19.60;18.07;;;17.40;99.90;;;;;;6003184;23;20472;-82
2022/05/02 07:25:09;;;;;;;20.10;18.57;;;17.70;99.90;;;;;;6002017;23;20444;-82
2022/05/02 07:27:59;;;;;;;18.80;17.37;;;18.00;99.90;;;;;;5998927;23;20541;-82
2022/05/02 07:30:26;;;;;;;19.33;17.93;;;18.10;99.90;;;;;;6002056;23;20511;-82
2022/05/02 07:32:54;;;;;;;18.03;16.63;;;18.20;99.90;;;;;;6003400;23;20465;-82
2022/05/02 07:35:23;;;;;;;19.23;17.57;;;18.40;99.90;;;;;;6002308;23;20492;-82
2022/05/02 07:37:51;;;;;;;19.33;17.93;;;18.60;99.90;;;;;;6000989;23;20457;-82
2022/05/02 07:40:22;;;;;;;18.93;17.53;;;18.70;99.90;;;;;;5995189;23;20453;-82
2022/05/02 07:42:52;;;;;;;18.87;17.47;;;18.90;99.90;;;;;;5999109;23;20999;-82
2022/05/02 07:45:22;;;;;;;18.83;17.43;;;19.20;99.90;;;;;;6001297;23;20876;-82
2022/05/02 07:47:52;;;;;;;18.83;17.33;;;19.60;99.90;;;;;;6002364;23;20473;-81
2022/05/02 07:50:22;;;;;;;18.93;17.43;;;20.20;99.90;;;;;;5987792;23;20441;-82
2022/05/02 07:52:52;;;;;;;22.67;20.80;;;20.70;99.90;;;;;;5991866;23;20453;-83
2022/05/02 07:55:23;;;;;;;16.30;14.90;;;21.20;99.90;;;;;;5992058;23;21036;-82
2022/05/02 07:57:51;;;;;;;15.93;14.80;;;21.80;99.90;;;;;;6001577;23;20535;-82
2022/05/02 08:00:19;;;;;;;16.07;14.87;;;22.40;99.90;;;;;;5997338;23;20539;-81
2022/05/02 08:02:47;;;;;;;17.23;15.93;;;22.80;99.90;;;;;;5988252;23;20436;-82
2022/05/02 08:05:20;;;;;;;16.27;15.10;;;22.70;99.10;;;;;;6001520;23;21039;-82
2022/05/02 08:07:50;;;;;;;16.13;14.83;;;23.10;98.90;;;;;;5997466;23;20484;-83
2022/05/02 08:10:45;;;;;;;15.80;14.70;;;23.90;97.90;;;;;;5999880;23;20542;-81
2022/05/02 08:13:32;;;;;;;16.00;14.73;;;24.20;94.90;;;;;;6000427;23;20952;-82
2022/05/02 08:16:03;;;;;;;14.70;13.70;;;24.30;94.70;;;;;;5985657;23;20898;-82
2022/05/02 08:19:03;;;;;;;14.43;13.27;;;24.70;93.70;;;;;;6001877;23;20466;-82
2022/05/02 08:21:34;;;;;;;16.33;15.13;;;25.00;92.70;;;;;;5997309;23;20527;-82
2022/05/02 08:27:27;;;;;;;14.00;12.90;;;25.40;90.40;;;;;;5995682;23;20476;-82
2022/05/02 08:30:07;;;;;;;14.10;13.00;;;25.80;90.50;;;;;;6004135;23;20433;-82
2022/05/02 08:32:43;;;;;;;13.53;12.50;;;26.20;86.50;;;;;;6002147;23;20441;-81
2022/05/02 08:35:14;;;;;;;15.30;14.30;;;26.70;84.60;;;;;;5995059;23;21004;-82
2022/05/02 08:38:13;;;;;;;15.10;14.00;;;26.80;82.10;;;;;;5993952;23;20524;-81
2022/05/02 08:41:15;;;;;;;16.20;15.10;;;26.80;81.00;;;;;;6000114;23;20461;-81
2022/05/02 08:44:09;;;;;;;13.40;12.50;;;26.90;80.90;;;;;;5995968;23;20445;-81
2022/05/02 08:47:11;;;;;;;15.63;14.53;;;26.40;82.20;;;;;;6003085;23;20471;-81
2022/05/02 08:50:16;;;;;;;14.50;13.30;;;27.30;80.60;;;;;;5944511;23;20444;-82
2022/05/02 08:53:15;;;;;;;14.20;13.00;;;27.80;78.80;;;;;;5996962;23;21185;-82
2022/05/02 08:56:10;;;;;;;14.27;13.20;;;28.20;76.80;;;;;;5988142;23;20503;-82
2022/05/02 08:59:10;;;;;;;13.77;12.87;;;28.80;74.40;;;;;;6000153;23;20473;-81
2022/05/02 09:02:11;;;;;;;12.00;11.20;;;28.80;72.70;;;;;;6000955;23;20475;-82
2022/05/02 09:05:26;;;;;;;12.80;11.90;;;28.70;71.40;;;;;;5997980;23;20467;-82
2022/05/02 09:08:25;;;;;;;13.43;12.43;;;28.50;70.30;;;;;;5998174;23;20491;-82
2022/05/02 09:11:31;;;;;;;13.00;12.07;;;27.80;71.10;;;;;;6000972;23;20579;-81
2022/05/02 09:14:40;;;;;;;12.70;11.70;;;27.40;70.30;;;;;;5994091;23;20441;-83
2022/05/02 09:17:46;;;;;;;12.73;11.83;;;26.50;72.70;;;;;;6001565;23;20941;-82
2022/05/02 09:20:40;;;;;;;14.20;13.20;;;26.70;71.70;;;;;;5997778;23;20445;-81
2022/05/02 09:23:47;;;;;;;11.10;10.40;;;26.50;71.80;;;;;;5997851;23;20532;-82
2022/05/02 09:26:53;;;;;;;12.30;11.40;;;26.40;71.90;;;;;;5989591;23;20452;-83
2022/05/02 09:29:50;;;;;;;10.77;9.97;;;26.10;69.60;;;;;;6003630;23;21008;-82
2022/05/02 09:32:25;;;;;;;11.03;10.33;;;25.90;72.60;;;;;;5994890;23;20532;-82
2022/05/02 09:34:56;;;;;;;11.03;10.23;;;25.50;71.50;;;;;;5994828;23;20447;-81
2022/05/02 09:37:39;;;;;;;10.90;10.10;;;25.40;71.50;;;;;;5991075;23;20837;-82
2022/05/02 09:40:12;;;;;;;11.03;10.13;;;26.20;71.80;;;;;;5989501;23;20445;-82
2022/05/02 09:42:57;;;;;;;10.50;9.70;;;26.60;71.90;;;;;;5995683;23;20468;-82
2022/05/02 09:51:54;;;;;;;9.90;9.30;;;25.80;69.60;;;;;;5998308;23;20480;-82
2022/05/02 09:57:32;;;;;;;13.03;11.90;;;26.40;70.00;;;;;;5942519;23;20551;-82
2022/05/02 10:02:50;;;;;;;12.70;11.80;;;26.10;69.70;;;;;;6000276;23;20974;-82
2022/05/02 10:05:23;;;;;;;12.40;11.50;;;26.40;68.80;;;;;;6001889;23;20448;-82
2022/05/02 10:08:09;;;;;;;12.70;11.80;;;25.80;69.30;;;;;;6000220;23;20477;-82
2022/05/02 10:10:43;;;;;;;12.70;11.70;;;25.60;72.50;;;;;;6000815;23;20817;-81
2022/05/02 10:13:20;;;;;;;10.93;10.13;;;25.70;71.10;;;;;;6000031;23;20523;-82
2022/05/02 10:16:04;;;;;;;10.80;10.03;;;25.80;72.00;;;;;;5994620;23;20433;-82
2022/05/02 10:18:51;;;;;;;12.30;11.50;;;26.40;69.90;;;;;;5996669;23;20449;-82
2022/05/02 10:21:42;;;;;;;12.07;10.97;;;26.20;68.80;;;;;;5994975;23;20829;-82
2022/05/02 10:24:44;;;;;;;10.10;9.40;;;25.60;72.30;;;;;;6000070;23;20524;-82
2022/05/02 10:27:24;;;;;;;11.97;11.17;;;24.90;71.60;;;;;;5999444;23;20464;-82
2022/05/02 10:30:06;;;;;;;10.67;9.97;;;24.20;72.90;;;;;;6003580;23;20520;-82
2022/05/02 10:32:56;;;;;;;9.97;9.27;;;23.90;73.20;;;;;;6000211;23;20453;-82
2022/05/02 10:35:25;;;;;;;10.70;9.87;;;23.90;74.80;;;;;;6002989;23;20449;-82
2022/05/02 10:37:57;;;;;;;10.00;9.30;;;24.00;74.40;;;;;;5998972;23;20491;-82
2022/05/02 10:40:34;;;;;;;9.87;9.20;;;23.80;75.70;;;;;;6000877;23;20476;-82
2022/05/02 10:43:05;;;;;;;8.93;8.33;;;23.60;74.80;;;;;;6001094;23;20453;-83
2022/05/02 10:45:35;;;;;;;8.50;7.80;;;23.30;75.30;;;;;;6001815;23;20534;-83
2022/05/02 10:48:15;;;;;;;8.90;8.30;;;22.80;74.90;;;;;;6003299;23;20473;-82
2022/05/02 10:51:04;;;;;;;7.10;6.60;;;22.60;75.40;;;;;;5999671;23;21031;-83
2022/05/02 10:53:57;;;;;;;7.50;7.00;;;22.70;75.10;;;;;;5989760;23;20446;-83
2022/05/02 10:56:34;;;;;;;6.87;6.37;;;23.40;73.90;;;;;;6004321;23;20441;-82
2022/05/02 10:59:06;;;;;;;8.00;7.40;;;24.20;71.80;;;;;;5990419;23;20521;-82
2022/05/02 11:02:15;;;;;;;6.53;6.13;;;25.00;70.50;;;;;;5995330;23;21005;-82
2022/05/02 11:05:01;;;;;;;6.13;5.73;;;25.30;68.20;;;;;;5940386;23;20518;-82
2022/05/02 11:07:32;;;;;;;6.30;5.90;;;25.80;68.30;;;;;;5996059;23;20526;-82
2022/05/02 11:10:05;;;;;;;8.00;7.37;;;26.30;69.00;;;;;;6004267;23;20449;-82
2022/05/02 11:12:38;;;;;;;8.10;7.47;;;27.30;66.60;;;;;;5997469;23;20445;-82
2022/05/02 11:15:09;;;;;;;9.03;8.43;;;27.70;65.30;;;;;;5993768;23;20496;-82
2022/05/02 11:17:54;;;;;;;6.63;6.23;;;27.60;67.30;;;;;;5990250;23;20463;-82
2022/05/02 11:20:43;;;;;;;5.37;5.07;;;27.20;62.60;;;;;;6002562;23;20492;-82
2022/05/02 11:23:31;;;;;;;5.20;4.90;;;26.60;63.70;;;;;;5994849;23;20944;-82
2022/05/02 11:26:11;;;;;;;7.73;7.13;;;27.10;63.60;;;;;;6002233;23;20449;-82
2022/05/02 11:28:53;;;;;;;6.33;5.93;;;26.60;62.20;;;;;;6005120;23;20860;-82
2022/05/02 11:31:26;;;;;;;6.17;5.73;;;25.60;64.00;;;;;;5990589;23;20956;-82
2022/05/02 11:34:03;;;;;;;5.40;5.10;;;25.40;64.90;;;;;;6003708;23;20956;-83
2022/05/02 11:36:34;;;;;;;5.17;4.87;;;25.00;64.90;;;;;;5998543;23;20442;-83
2022/05/02 11:39:05;;;;;;;5.87;5.47;;;24.20;66.90;;;;;;6003707;23;20544;-83
2022/05/02 11:41:33;;;;;;;9.47;8.77;;;23.80;70.50;;;;;;5996256;23;20556;-83
2022/05/02 11:44:11;;;;;;;10.10;9.40;;;23.80;73.60;;;;;;5996586;23;20998;-83
2022/05/02 11:47:02;;;;;;;10.43;9.53;;;23.80;74.40;;;;;;5993232;23;20524;-82
2022/05/02 11:49:47;;;;;;;5.80;5.40;;;23.80;72.90;;;;;;5997999;23;20460;-82
2022/05/02 11:52:29;;;;;;;5.43;5.03;;;23.50;70.70;;;;;;6000381;23;20588;-83
2022/05/02 11:54:58;;;;;;;5.43;5.03;;;23.30;71.10;;;;;;5997510;23;20464;-83
2022/05/02 11:57:29;;;;;;;5.77;5.37;;;23.30;70.50;;;;;;6003850;23;20448;-82
2022/05/02 12:00:05;;;;;;;6.03;5.63;;;23.40;69.90;;;;;;6001312;23;20498;-82
2022/05/02 12:02:46;;;;;;;5.37;4.90;;;23.50;69.50;;;;;;5997074;23;20467;-83
2022/05/02 12:05:32;;;;;;;6.63;6.13;;;24.20;71.00;;;;;;5988727;23;20453;-83
2022/05/02 12:08:01;;;;;;;6.10;5.60;;;25.00;71.30;;;;;;5998811;23;20476;-83
2022/05/02 12:10:37;;;;;;;6.03;5.67;;;26.00;69.80;;;;;;6002003;23;20461;-82
2022/05/02 12:13:05;;;;;;;5.30;5.00;;;26.40;65.80;;;;;;6003570;23;20452;-82
2022/05/02 12:15:33;;;;;;;6.40;6.00;;;26.60;62.50;;;;;;6001381;23;20444;-86
2022/05/02 12:18:05;;;;;;;6.37;5.90;;;26.10;62.30;;;;;;5986230;23;20690;-85
2022/05/02 12:20:35;;;;;;;8.60;8.00;;;25.60;65.40;;;;;;5997733;23;20464;-85
2022/05/02 12:23:05;;;;;;;7.10;6.60;;;25.70;68.10;;;;;;5998199;23;20470;-86
2022/05/02 12:25:34;;;;;;;5.97;5.60;;;25.80;68.40;;;;;;6000067;23;20459;-86
2022/05/02 12:28:03;;;;;;;6.63;6.13;;;25.70;67.90;;;;;;6001453;23;20555;-86
2022/05/02 12:30:31;;;;;;;6.43;6.00;;;25.90;67.20;;;;;;6001887;23;20540;-86
2022/05/02 12:33:09;;;;;;;5.43;5.07;;;26.10;66.70;;;;;;6000144;23;20469;-86
2022/05/02 12:35:50;;;;;;;5.40;5.00;;;26.30;67.20;;;;;;6001035;23;20452;-85
2022/05/02 12:38:24;;;;;;;5.30;5.00;;;26.70;65.00;;;;;;5996432;23;20840;-87
2022/05/02 12:40:57;;;;;;;4.93;4.63;;;27.00;64.10;;;;;;6002142;23;20516;-86
2022/05/02 12:43:29;;;;;;;5.37;4.97;;;26.70;64.00;;;;;;5999938;23;20492;-84
2022/05/02 12:45:57;;;;;;;5.50;5.20;;;26.70;64.90;;;;;;6000876;23;20449;-85
2022/05/02 12:48:30;;;;;;;6.33;5.73;;;26.30;64.70;;;;;;6002153;23;20523;-86
2022/05/02 12:50:59;;;;;;;5.57;5.17;;;25.40;65.50;;;;;;6000383;23;20461;-86
2022/05/02 12:56:13;;;;;;;5.00;4.60;;;24.20;68.70;;;;;;5992406;23;20453;-85
2022/05/02 13:01:43;;;;;;;5.50;5.17;;;23.60;70.00;;;;;;5998708;23;20461;-85
2022/05/02 13:04:17;;;;;;;5.30;4.90;;;23.30;70.50;;;;;;6002069;23;20471;-87
2022/05/02 13:06:45;;;;;;;6.43;6.00;;;23.10;71.10;;;;;;6002196;23;20785;-86
2022/05/02 13:09:15;;;;;;;6.77;6.27;;;22.80;71.10;;;;;;5999547;23;20884;-85
2022/05/02 13:11:43;;;;;;;6.13;5.63;;;22.50;71.50;;;;;;5995670;23;20488;-86
2022/05/02 13:14:21;;;;;;;5.63;5.13;;;22.60;73.30;;;;;;6001627;23;20884;-84
2022/05/02 13:16:48;;;;;;;5.50;5.10;;;23.30;72.20;;;;;;6001814;23;20445;-85
2022/05/02 13:19:17;;;;;;;6.70;6.23;;;24.50;71.70;;;;;;6004693;23;20448;-84
2022/05/02 13:21:55;;;;;;;4.93;4.63;;;25.00;68.40;;;;;;6005005;23;20465;-86
2022/05/02 13:24:23;;;;;;;5.70;5.40;;;25.50;69.30;;;;;;6004472;23;20446;-85
2022/05/02 13:27:03;;;;;;;6.10;5.70;;;25.60;67.50;;;;;;6005222;23;20543;-85
2022/05/02 13:29:55;;;;;;;5.53;5.23;;;25.60;67.40;;;;;;6002002;23;20524;-85
2022/05/02 13:32:27;;;;;;;5.67;5.33;;;25.40;67.80;;;;;;6003454;23;20464;-85
2022/05/02 13:35:11;;;;;;;5.20;4.90;;;25.10;67.80;;;;;;6005592;23;20508;-85